Time;durP1;ratioP1;P1;durP2;ratioP2;P2;SDS_P1;SDS_P2;PMS_P1;PMS_P2;Temp;Humidity;BMP_temperature;BMP_pressure;BME280_temperature;BME280_humidity;BME280_pressure;Samples;Min_cycle;Max_cycle;Signal;HPM_P1;HPM_P2
2022/09/24 00:01:20;;;;;;;31.80;12.98;;;8.20;99.90;;;;;;5000816;28;20401;-85
2022/09/24 00:03:52;;;;;;;33.20;15.27;;;8.20;99.90;;;;;;5008481;28;20037;-84
2022/09/24 00:06:19;;;;;;;21.25;11.10;;;8.20;99.90;;;;;;4985149;28;20033;-83
2022/09/24 00:08:47;;;;;;;15.55;8.35;;;8.20;99.90;;;;;;4980753;28;20079;-84
2022/09/24 00:11:13;;;;;;;17.80;9.00;;;8.20;99.90;;;;;;4995099;28;20033;-84
2022/09/24 00:13:39;;;;;;;11.30;7.13;;;8.30;99.90;;;;;;4991968;28;20030;-84
2022/09/24 00:16:09;;;;;;;9.70;6.22;;;8.30;99.90;;;;;;4990446;28;20037;-84
2022/09/24 00:18:35;;;;;;;7.75;4.93;;;8.30;99.90;;;;;;5010273;28;20030;-84
2022/09/24 00:21:11;;;;;;;10.00;6.70;;;8.30;99.90;;;;;;5012987;28;20034;-85
2022/09/24 00:23:36;;;;;;;7.15;5.40;;;8.30;99.90;;;;;;5018704;28;20390;-84
2022/09/24 00:28:51;;;;;;;11.70;6.50;;;8.20;99.90;;;;;;5006438;28;20052;-84
2022/09/24 00:31:17;;;;;;;11.80;6.30;;;8.20;99.90;;;;;;5001034;28;20066;-84
2022/09/24 00:33:43;;;;;;;6.03;4.90;;;8.20;99.90;;;;;;4996619;28;20097;-84
2022/09/24 00:36:09;;;;;;;5.82;4.90;;;8.20;99.90;;;;;;4993947;28;20033;-84
2022/09/24 00:38:34;;;;;;;6.47;4.60;;;8.20;99.90;;;;;;4986133;28;20034;-85
2022/09/24 00:41:02;;;;;;;5.82;4.90;;;8.20;99.90;;;;;;4965635;28;20038;-83
2022/09/24 00:43:32;;;;;;;9.48;5.35;;;8.20;99.90;;;;;;4966467;28;20042;-84
2022/09/24 00:46:40;;;;;;;9.63;5.85;;;8.20;99.90;;;;;;5010850;28;20029;-84
2022/09/24 00:49:16;;;;;;;6.72;5.70;;;8.20;99.90;;;;;;4997866;28;20029;-85
2022/09/24 00:51:44;;;;;;;7.55;5.75;;;8.10;99.90;;;;;;4979320;28;20409;-84
2022/09/24 00:54:23;;;;;;;7.10;4.20;;;8.20;99.90;;;;;;5005383;28;20512;-84
2022/09/24 00:56:50;;;;;;;8.73;4.55;;;8.20;99.90;;;;;;4980880;28;20597;-84
2022/09/24 00:59:19;;;;;;;4.95;4.40;;;8.20;99.90;;;;;;4991584;28;20045;-84
2022/09/24 01:01:46;;;;;;;5.32;4.70;;;8.20;99.90;;;;;;4996614;28;20118;-85
2022/09/24 01:04:15;;;;;;;5.13;4.20;;;8.20;99.90;;;;;;4990914;28;20508;-85
2022/09/24 01:06:41;;;;;;;5.90;4.82;;;8.20;99.90;;;;;;4988642;28;20049;-84
2022/09/24 01:09:07;;;;;;;4.88;4.40;;;8.20;99.90;;;;;;5010891;28;20038;-85
2022/09/24 01:11:56;;;;;;;4.85;4.40;;;8.20;99.90;;;;;;4990397;28;20455;-84
2022/09/24 01:14:34;;;;;;;5.15;4.30;;;8.20;99.90;;;;;;5011751;28;20045;-84
2022/09/24 01:17:21;;;;;;;5.60;4.43;;;8.30;99.90;;;;;;5012056;28;20114;-84
2022/09/24 01:20:05;;;;;;;4.60;3.97;;;8.30;99.90;;;;;;5011691;28;20044;-84
2022/09/24 01:23:03;;;;;;;5.50;4.30;;;8.40;99.90;;;;;;5020275;28;20037;-85
2022/09/24 01:26:06;;;;;;;5.03;4.38;;;8.40;99.90;;;;;;5014334;28;20620;-85
2022/09/24 01:28:32;;;;;;;4.72;4.22;;;8.40;99.90;;;;;;5029163;28;20488;-85
2022/09/24 01:31:13;;;;;;;5.32;3.95;;;8.50;99.90;;;;;;5012905;28;20080;-84
2022/09/24 01:33:40;;;;;;;5.50;4.25;;;8.50;99.90;;;;;;4979950;28;20375;-85
2022/09/24 01:36:08;;;;;;;6.30;4.38;;;8.50;99.90;;;;;;4998790;28;20048;-84
2022/09/24 01:38:39;;;;;;;6.75;3.67;;;8.50;99.90;;;;;;5011750;28;20059;-85
2022/09/24 01:41:09;;;;;;;4.00;3.55;;;8.50;99.90;;;;;;5003937;28;20036;-84
2022/09/24 01:43:35;;;;;;;4.60;4.18;;;8.50;99.90;;;;;;5015674;28;20130;-85
2022/09/24 01:46:05;;;;;;;5.10;4.32;;;8.50;99.90;;;;;;5014905;28;20151;-86
2022/09/24 01:48:36;;;;;;;5.20;4.70;;;8.50;99.90;;;;;;5028331;28;20128;-84
2022/09/24 01:51:10;;;;;;;7.32;4.22;;;8.50;99.90;;;;;;4996430;28;20029;-84
2022/09/24 01:53:44;;;;;;;5.20;4.63;;;8.50;99.90;;;;;;5008438;28;20040;-85
2022/09/24 01:56:16;;;;;;;6.72;4.35;;;8.50;99.90;;;;;;5011792;28;20029;-84
2022/09/24 01:58:50;;;;;;;4.35;3.95;;;8.40;99.90;;;;;;4995345;28;20036;-85
2022/09/24 02:01:25;;;;;;;6.88;3.95;;;8.50;99.90;;;;;;5009184;28;20088;-85
2022/09/24 02:03:56;;;;;;;5.17;4.20;;;8.50;99.90;;;;;;5003966;28;20029;-85
2022/09/24 02:06:37;;;;;;;4.55;4.15;;;8.50;99.90;;;;;;4965718;28;20034;-84
2022/09/24 02:09:03;;;;;;;6.43;3.83;;;8.40;99.90;;;;;;5008145;28;20172;-84
2022/09/24 02:11:32;;;;;;;4.45;4.05;;;8.50;99.90;;;;;;5024417;28;20025;-85
2022/09/24 02:14:10;;;;;;;6.97;4.60;;;8.50;99.90;;;;;;4961281;28;20179;-85
2022/09/24 02:16:46;;;;;;;6.35;4.68;;;8.40;99.90;;;;;;5014460;28;20592;-85
2022/09/24 02:19:17;;;;;;;4.97;4.28;;;8.40;99.90;;;;;;4995018;28;20044;-85
2022/09/24 02:21:45;;;;;;;4.80;3.85;;;8.40;99.90;;;;;;4996934;28;20462;-84
2022/09/24 02:24:19;;;;;;;5.75;3.95;;;8.40;99.90;;;;;;5017986;28;20032;-84
2022/09/24 02:26:46;;;;;;;4.70;4.20;;;8.40;99.90;;;;;;5008993;28;20033;-85
2022/09/24 02:29:12;;;;;;;4.38;3.97;;;8.40;99.90;;;;;;4996182;28;20057;-85
2022/09/24 02:31:42;;;;;;;5.10;4.47;;;8.40;99.90;;;;;;5002395;28;20037;-84
2022/09/24 02:34:21;;;;;;;6.68;4.20;;;8.40;99.90;;;;;;5011042;28;20025;-85
2022/09/24 02:37:09;;;;;;;5.53;4.20;;;8.30;99.90;;;;;;4996535;28;20029;-86
2022/09/24 02:39:35;;;;;;;4.57;4.10;;;8.30;99.90;;;;;;4984394;28;20037;-85
2022/09/24 02:42:04;;;;;;;5.03;4.05;;;8.30;99.90;;;;;;4967826;28;20493;-84
2022/09/24 02:44:31;;;;;;;5.47;4.20;;;8.30;99.90;;;;;;5009319;28;20041;-85
2022/09/24 02:46:57;;;;;;;6.25;3.92;;;8.30;99.90;;;;;;5008407;28;20037;-84
2022/09/24 02:49:23;;;;;;;5.88;3.90;;;8.40;99.90;;;;;;4993102;28;20059;-84
2022/09/24 02:51:49;;;;;;;4.53;4.13;;;8.40;99.90;;;;;;4986767;28;20037;-85
2022/09/24 02:54:15;;;;;;;4.30;3.90;;;8.40;99.90;;;;;;4993945;28;20053;-85
2022/09/24 02:56:41;;;;;;;4.25;3.60;;;8.40;99.90;;;;;;5015393;28;20060;-85
2022/09/24 02:59:07;;;;;;;5.30;4.22;;;8.30;99.90;;;;;;4993970;28;20497;-83
2022/09/24 03:01:34;;;;;;;5.75;4.22;;;8.30;99.90;;;;;;4998574;28;20103;-85
2022/09/24 03:04:00;;;;;;;4.55;4.15;;;8.30;99.90;;;;;;4991452;28;20189;-85
2022/09/24 03:06:27;;;;;;;4.85;4.32;;;8.30;99.90;;;;;;5004682;28;20473;-85
2022/09/24 03:08:53;;;;;;;5.55;4.07;;;8.30;99.90;;;;;;4980452;28;20677;-84
2022/09/24 03:11:23;;;;;;;7.18;4.53;;;8.20;99.90;;;;;;5003249;28;20035;-85
2022/09/24 03:13:49;;;;;;;7.43;4.68;;;8.20;99.90;;;;;;5006299;28;20030;-85
2022/09/24 03:16:16;;;;;;;4.70;4.20;;;8.20;99.90;;;;;;4990754;28;20686;-85
2022/09/24 03:18:42;;;;;;;6.72;4.35;;;8.20;99.90;;;;;;4976948;28;20034;-84
2022/09/24 03:21:11;;;;;;;6.50;4.28;;;8.10;99.90;;;;;;4976538;28;20038;-85
2022/09/24 03:23:38;;;;;;;5.93;4.40;;;8.10;99.90;;;;;;4992203;28;20033;-83
2022/09/24 03:26:04;;;;;;;5.10;4.13;;;8.10;99.90;;;;;;5010644;28;20262;-84
2022/09/24 03:28:30;;;;;;;5.13;4.60;;;8.00;99.90;;;;;;5010194;28;20064;-84
2022/09/24 03:30:59;;;;;;;5.90;4.22;;;8.00;99.90;;;;;;5000278;28;20459;-84
2022/09/24 03:33:37;;;;;;;7.13;4.03;;;8.00;99.90;;;;;;5013700;28;20075;-84
2022/09/24 03:36:09;;;;;;;4.85;4.32;;;8.00;99.90;;;;;;5000888;28;20085;-84
2022/09/24 03:38:36;;;;;;;4.82;4.13;;;8.00;99.90;;;;;;5017851;28;20052;-84
2022/09/24 03:41:03;;;;;;;5.30;4.40;;;7.90;99.90;;;;;;5010351;28;20033;-84
2022/09/24 03:43:30;;;;;;;6.95;4.53;;;7.90;99.90;;;;;;4974674;28;20744;-84
2022/09/24 03:45:56;;;;;;;6.95;5.07;;;7.90;99.90;;;;;;5008018;28;20040;-84
2022/09/24 03:48:23;;;;;;;5.63;4.70;;;7.90;99.90;;;;;;5006291;28;20034;-85
2022/09/24 03:50:49;;;;;;;5.85;4.88;;;7.90;99.90;;;;;;4988805;28;20025;-83
2022/09/24 03:53:17;;;;;;;5.18;4.32;;;7.90;99.90;;;;;;5015778;28;20090;-85
2022/09/24 03:55:45;;;;;;;5.47;4.75;;;7.90;99.90;;;;;;5017814;28;20432;-85
2022/09/24 03:58:12;;;;;;;6.05;5.18;;;7.80;99.90;;;;;;5012232;28;20075;-85
2022/09/24 04:00:38;;;;;;;5.13;4.63;;;7.80;99.90;;;;;;5000962;28;20036;-84
2022/09/24 04:03:04;;;;;;;4.93;4.43;;;7.80;99.90;;;;;;4974884;28;20030;-84
2022/09/24 04:05:30;;;;;;;5.50;4.20;;;7.80;99.90;;;;;;4999690;28;20552;-84
2022/09/24 04:07:57;;;;;;;4.90;4.32;;;7.80;99.90;;;;;;4997032;28;20033;-84
2022/09/24 04:10:23;;;;;;;4.55;4.15;;;7.80;99.90;;;;;;5013303;28;20030;-84
2022/09/24 04:12:51;;;;;;;7.05;4.53;;;7.80;99.90;;;;;;4993492;28;20176;-85
2022/09/24 04:15:17;;;;;;;4.97;4.38;;;7.80;99.90;;;;;;4998096;28;20106;-85
2022/09/24 04:17:57;;;;;;;4.88;4.10;;;7.80;99.90;;;;;;5013367;28;20417;-84
2022/09/24 04:20:25;;;;;;;6.30;4.70;;;7.80;99.90;;;;;;5001562;28;20123;-85
2022/09/24 04:22:53;;;;;;;8.30;4.65;;;7.90;99.90;;;;;;4995509;28;20084;-84
2022/09/24 04:25:20;;;;;;;5.30;4.35;;;7.90;99.90;;;;;;5013917;28;20029;-85
2022/09/24 04:27:51;;;;;;;6.38;4.53;;;8.00;99.90;;;;;;5009527;28;20038;-84
2022/09/24 04:30:17;;;;;;;4.90;4.40;;;8.00;99.90;;;;;;5017917;28;20109;-84
2022/09/24 04:32:43;;;;;;;5.10;3.97;;;8.10;99.90;;;;;;4997206;28;20231;-84
2022/09/24 04:35:09;;;;;;;10.93;4.47;;;8.10;99.90;;;;;;4977456;28;20041;-84
2022/09/24 04:37:36;;;;;;;5.15;4.63;;;8.10;99.90;;;;;;4996986;28;20401;-85
2022/09/24 04:40:04;;;;;;;4.95;4.30;;;8.10;99.90;;;;;;5041355;23;20037;-83
2022/09/24 04:42:30;;;;;;;6.13;5.00;;;8.10;99.90;;;;;;5025248;28;20041;-84
2022/09/24 04:44:56;;;;;;;13.30;6.20;;;8.20;99.90;;;;;;5015364;28;20124;-83
2022/09/24 04:47:25;;;;;;;6.25;4.40;;;8.10;99.90;;;;;;5020725;28;20059;-80
2022/09/24 04:49:51;;;;;;;4.80;4.30;;;8.20;99.90;;;;;;5011219;28;20037;-84
2022/09/24 04:52:17;;;;;;;5.10;4.50;;;8.20;99.90;;;;;;4996491;28;20029;-85
2022/09/24 04:54:46;;;;;;;5.75;4.15;;;8.20;99.90;;;;;;5002211;28;20056;-84
2022/09/24 04:57:13;;;;;;;4.63;4.15;;;8.20;99.90;;;;;;5036819;28;20021;-82
2022/09/24 04:59:39;;;;;;;4.55;4.10;;;8.20;99.90;;;;;;5004883;28;20033;-83
2022/09/24 05:02:08;;;;;;;5.45;4.32;;;8.20;99.90;;;;;;4980224;28;20032;-84
2022/09/24 05:04:37;;;;;;;5.75;5.18;;;8.20;99.90;;;;;;5008389;28;20025;-84
2022/09/24 05:07:03;;;;;;;6.63;4.43;;;8.20;99.90;;;;;;5003505;28;20663;-83
2022/09/24 05:09:30;;;;;;;6.68;4.40;;;8.10;99.90;;;;;;5000966;28;20144;-84
2022/09/24 05:11:57;;;;;;;4.38;3.80;;;8.10;99.90;;;;;;5008828;28;20071;-83
2022/09/24 05:14:24;;;;;;;6.20;4.47;;;8.10;99.90;;;;;;5000990;28;20033;-80
2022/09/24 05:16:49;;;;;;;6.50;4.20;;;8.10;99.90;;;;;;5018959;28;20026;-84
2022/09/24 05:19:15;;;;;;;7.82;4.93;;;8.10;99.90;;;;;;5002085;28;20051;-82
2022/09/24 05:21:41;;;;;;;7.80;4.30;;;8.10;99.90;;;;;;5003623;28;20046;-84
2022/09/24 05:24:06;;;;;;;6.55;4.60;;;8.10;99.90;;;;;;4991506;28;20864;-83
2022/09/24 05:29:17;;;;;;;6.00;4.38;;;8.10;99.90;;;;;;4987157;28;20034;-85
2022/09/24 05:31:42;;;;;;;6.40;4.43;;;8.10;99.90;;;;;;4999426;28;20416;-86
2022/09/24 05:34:08;;;;;;;5.00;4.32;;;8.20;99.90;;;;;;4984813;28;20034;-84
2022/09/24 05:36:34;;;;;;;8.38;3.85;;;8.20;99.90;;;;;;4997780;28;20029;-83
2022/09/24 05:39:00;;;;;;;7.30;4.43;;;8.20;99.90;;;;;;5012362;28;20481;-83
2022/09/24 05:41:26;;;;;;;5.18;4.30;;;8.30;99.90;;;;;;5015318;28;20030;-84
2022/09/24 05:43:52;;;;;;;7.63;4.22;;;8.30;99.90;;;;;;4983717;28;20030;-83
2022/09/24 05:46:18;;;;;;;4.35;3.92;;;8.40;99.90;;;;;;4993254;28;20117;-84
2022/09/24 05:48:43;;;;;;;4.60;4.15;;;8.50;99.90;;;;;;4972761;28;21506;-81
2022/09/24 05:51:09;;;;;;;5.80;4.65;;;8.50;99.90;;;;;;4999417;28;20056;-83
2022/09/24 05:53:35;;;;;;;4.63;4.13;;;8.60;99.90;;;;;;4984716;28;20038;-84
2022/09/24 05:56:01;;;;;;;5.25;4.07;;;8.70;99.90;;;;;;4985242;28;20495;-82
2022/09/24 05:58:26;;;;;;;4.53;3.92;;;8.80;99.90;;;;;;5039654;28;20032;-82
2022/09/24 06:00:52;;;;;;;6.25;4.38;;;8.80;99.90;;;;;;5003067;28;20434;-84
2022/09/24 06:03:19;;;;;;;8.70;5.10;;;8.90;99.90;;;;;;4999340;28;20049;-84
2022/09/24 06:05:50;;;;;;;6.60;4.47;;;9.00;99.90;;;;;;5027256;28;20032;-83
2022/09/24 06:08:19;;;;;;;7.85;4.50;;;9.20;99.90;;;;;;4996120;28;20043;-84
2022/09/24 06:10:46;;;;;;;5.43;4.20;;;9.50;99.90;;;;;;5002611;28;20037;-84
2022/09/24 06:13:16;;;;;;;4.28;3.45;;;9.80;99.90;;;;;;5005895;28;20032;-82
2022/09/24 06:15:43;;;;;;;6.53;4.30;;;10.00;99.90;;;;;;5004727;28;20037;-81
2022/09/24 06:18:10;;;;;;;4.60;3.75;;;10.30;99.90;;;;;;5028688;28;20531;-81
2022/09/24 06:20:35;;;;;;;4.97;3.90;;;10.50;99.90;;;;;;4996545;28;20037;-83
2022/09/24 06:23:01;;;;;;;6.18;3.72;;;10.70;99.90;;;;;;5001524;28;20836;-83
2022/09/24 06:25:28;;;;;;;4.40;3.33;;;10.80;99.90;;;;;;4999212;28;20039;-82
2022/09/24 06:28:02;;;;;;;5.38;3.75;;;10.90;99.90;;;;;;5016198;28;21677;-83
2022/09/24 06:30:40;;;;;;;8.10;3.72;;;11.00;99.90;;;;;;5013513;28;20037;-86
2022/09/24 06:33:08;;;;;;;6.95;4.03;;;11.10;99.90;;;;;;5004883;28;20025;-82
2022/09/24 06:35:36;;;;;;;5.13;3.97;;;11.10;99.90;;;;;;5013905;28;20045;-83
2022/09/24 06:38:07;;;;;;;4.50;3.78;;;10.80;99.90;;;;;;4974544;28;20113;-83
2022/09/24 06:40:33;;;;;;;4.07;3.65;;;10.70;99.90;;;;;;5014326;28;20041;-83
2022/09/24 06:42:58;;;;;;;5.93;3.35;;;10.70;99.90;;;;;;5027342;28;20082;-83
2022/09/24 06:45:25;;;;;;;4.22;3.75;;;10.80;99.90;;;;;;4995017;28;20064;-83
2022/09/24 06:47:52;;;;;;;4.25;3.85;;;11.00;99.90;;;;;;5006279;28;20037;-84
2022/09/24 06:50:18;;;;;;;5.30;3.50;;;11.20;99.90;;;;;;5005460;28;20066;-84
2022/09/24 06:52:43;;;;;;;3.40;3.05;;;11.40;99.90;;;;;;5006179;28;20044;-82
2022/09/24 06:55:09;;;;;;;4.35;3.53;;;11.70;99.90;;;;;;4988349;28;20057;-84
2022/09/24 06:57:35;;;;;;;3.78;3.38;;;12.00;99.90;;;;;;4979370;28;20416;-84
2022/09/24 07:00:01;;;;;;;5.55;3.47;;;12.20;99.90;;;;;;4997006;28;20079;-81
2022/09/24 07:02:27;;;;;;;4.60;3.25;;;12.30;99.90;;;;;;4979542;28;20085;-83
2022/09/24 07:04:53;;;;;;;4.60;3.22;;;12.30;99.90;;;;;;4961862;28;20030;-83
2022/09/24 07:07:34;;;;;;;4.70;3.90;;;12.20;99.90;;;;;;4982610;28;20456;-83
2022/09/24 07:10:06;;;;;;;7.07;3.50;;;12.10;99.90;;;;;;4994552;28;20068;-83
2022/09/24 07:12:33;;;;;;;7.93;3.55;;;12.00;99.90;;;;;;5000551;28;20079;-82
2022/09/24 07:15:00;;;;;;;4.47;3.35;;;11.80;99.90;;;;;;5013088;28;20864;-83
2022/09/24 07:17:27;;;;;;;4.05;3.60;;;11.70;99.90;;;;;;4998978;28;20034;-84
2022/09/24 07:19:53;;;;;;;6.32;3.60;;;11.60;99.90;;;;;;4989540;28;20056;-83
2022/09/24 07:22:19;;;;;;;4.47;3.90;;;11.40;99.90;;;;;;4998328;28;20037;-82
2022/09/24 07:24:45;;;;;;;7.45;4.00;;;11.50;99.90;;;;;;5023638;28;20415;-83
2022/09/24 07:27:12;;;;;;;5.00;3.60;;;11.70;99.90;;;;;;5027961;28;20064;-83
2022/09/24 07:29:38;;;;;;;4.30;3.67;;;12.00;99.90;;;;;;5005537;28;20644;-81
2022/09/24 07:32:03;;;;;;;4.78;4.00;;;12.30;99.90;;;;;;5002366;28;20031;-83
2022/09/24 07:34:30;;;;;;;5.07;3.97;;;12.50;99.90;;;;;;5025713;28;20052;-82
2022/09/24 07:36:56;;;;;;;5.65;3.70;;;12.60;99.90;;;;;;5002035;28;20032;-85
2022/09/24 07:39:22;;;;;;;5.43;3.65;;;12.80;99.90;;;;;;5012269;28;20033;-86
2022/09/24 07:41:51;;;;;;;5.07;3.80;;;12.80;99.90;;;;;;5025962;28;20048;-83
2022/09/24 07:44:21;;;;;;;4.82;3.40;;;12.80;99.90;;;;;;5004764;28;20039;-83
2022/09/24 07:46:51;;;;;;;4.53;3.53;;;12.70;99.90;;;;;;4985119;28;20029;-85
2022/09/24 07:49:16;;;;;;;4.85;4.32;;;12.60;99.90;;;;;;4968388;28;20057;-83
2022/09/24 07:51:42;;;;;;;10.10;5.40;;;12.60;99.90;;;;;;5013258;28;20528;-82
2022/09/24 07:54:09;;;;;;;5.63;4.03;;;12.60;99.90;;;;;;5008953;28;20014;-84
2022/09/24 07:56:35;;;;;;;6.45;4.40;;;12.80;99.90;;;;;;5004989;28;20025;-84
2022/09/24 07:59:01;;;;;;;5.07;4.15;;;12.80;99.90;;;;;;5018443;28;20484;-85
2022/09/24 08:01:27;;;;;;;4.65;4.25;;;12.80;99.90;;;;;;5003295;28;20025;-85
2022/09/24 08:03:53;;;;;;;4.68;4.15;;;12.90;99.90;;;;;;4984721;28;20033;-83
2022/09/24 08:06:22;;;;;;;4.47;4.03;;;12.90;99.90;;;;;;5026715;28;20459;-84
2022/09/24 08:08:49;;;;;;;5.75;3.83;;;12.90;99.90;;;;;;5006396;28;20033;-83
2022/09/24 08:11:18;;;;;;;4.13;3.50;;;12.90;99.90;;;;;;5013924;28;20025;-82
2022/09/24 08:13:46;;;;;;;7.05;4.53;;;13.00;99.90;;;;;;4987495;28;20055;-83
2022/09/24 08:16:12;;;;;;;8.23;3.83;;;13.10;99.90;;;;;;5009065;28;20037;-83
2022/09/24 08:18:39;;;;;;;6.03;4.32;;;13.20;99.90;;;;;;4992609;28;20040;-84
2022/09/24 08:21:08;;;;;;;5.15;4.35;;;13.40;99.90;;;;;;5002074;28;20059;-82
2022/09/24 08:23:35;;;;;;;7.70;4.35;;;13.30;99.90;;;;;;5000340;28;20034;-81
2022/09/24 08:26:01;;;;;;;7.32;4.65;;;13.30;99.90;;;;;;5000526;28;20025;-82
2022/09/24 08:28:27;;;;;;;5.47;4.30;;;13.30;99.90;;;;;;5002647;28;20026;-80
2022/09/24 08:31:00;;;;;;;4.97;4.05;;;13.30;99.90;;;;;;5006132;28;20053;-82
2022/09/24 08:33:27;;;;;;;5.20;4.43;;;13.30;99.90;;;;;;5015103;28;20017;-83
2022/09/24 08:35:53;;;;;;;4.95;4.28;;;13.30;99.90;;;;;;5017023;28;20600;-85
2022/09/24 08:38:22;;;;;;;5.80;4.53;;;13.30;99.90;;;;;;5004456;28;20116;-84
2022/09/24 08:41:01;;;;;;;7.15;4.68;;;13.30;99.90;;;;;;5015441;28;20034;-83
2022/09/24 08:43:38;;;;;;;5.13;4.63;;;13.40;99.90;;;;;;4992916;28;20048;-83
2022/09/24 08:49:03;;;;;;;5.47;4.15;;;13.60;99.90;;;;;;5000685;28;20056;-83
2022/09/24 08:51:38;;;;;;;6.25;4.65;;;13.70;99.90;;;;;;5013560;28;20038;-81
2022/09/24 08:54:11;;;;;;;5.30;4.50;;;13.70;99.90;;;;;;4998354;28;20125;-82
2022/09/24 08:56:43;;;;;;;7.90;5.15;;;13.80;99.90;;;;;;4982356;28;20037;-84
2022/09/24 08:59:29;;;;;;;6.80;4.93;;;13.90;99.90;;;;;;5016706;28;20168;-85
2022/09/24 09:02:25;;;;;;;6.47;4.78;;;13.90;99.90;;;;;;5021477;28;20025;-83
2022/09/24 09:04:57;;;;;;;7.93;5.43;;;13.90;99.90;;;;;;5017962;28;20030;-84
2022/09/24 09:08:12;;;;;;;7.32;4.82;;;14.00;99.90;;;;;;5000351;28;20083;-84
2022/09/24 09:10:40;;;;;;;7.40;5.13;;;14.10;99.90;;;;;;4956422;28;20642;-83
2022/09/24 09:13:14;;;;;;;6.55;5.32;;;14.20;99.90;;;;;;4932495;28;20561;-84
2022/09/24 09:15:43;;;;;;;6.80;5.63;;;14.20;99.90;;;;;;4978743;28;20124;-82
2022/09/24 09:18:27;;;;;;;6.00;5.40;;;14.30;99.90;;;;;;5015337;28;20069;-84
2022/09/24 09:20:55;;;;;;;7.65;5.88;;;14.30;99.90;;;;;;5013659;28;20064;-83
2022/09/24 09:23:30;;;;;;;9.75;5.38;;;14.30;99.90;;;;;;4982707;28;20069;-84
2022/09/24 09:25:58;;;;;;;6.22;5.15;;;14.40;99.90;;;;;;5002740;28;20034;-85
2022/09/24 09:28:28;;;;;;;6.70;6.00;;;14.40;99.90;;;;;;5005409;28;20036;-83
2022/09/24 09:30:54;;;;;;;6.90;4.90;;;14.50;99.90;;;;;;5012976;28;20126;-83
2022/09/24 09:33:34;;;;;;;6.72;5.63;;;14.60;99.90;;;;;;5014757;28;20120;-86
2022/09/24 09:36:17;;;;;;;7.18;5.88;;;14.70;99.90;;;;;;4991244;28;20382;-85
2022/09/24 09:39:03;;;;;;;8.15;6.07;;;14.60;99.90;;;;;;5001782;28;20124;-84
2022/09/24 09:41:40;;;;;;;;;;;14.70;99.90;;;;;;5019982;28;20021;-83
2022/09/24 09:44:21;;;;;;;9.45;6.35;;;14.80;99.90;;;;;;5003030;28;19913;-84
2022/09/24 09:47:04;;;;;;;8.38;6.93;;;14.90;99.90;;;;;;4999681;28;20029;-87
2022/09/24 09:49:34;;;;;;;8.68;6.65;;;15.00;99.90;;;;;;4997972;28;20060;-85
2022/09/24 09:52:09;;;;;;;9.60;6.65;;;15.20;99.90;;;;;;5016731;28;20029;-86
2022/09/24 09:54:37;;;;;;;8.82;6.20;;;15.30;99.90;;;;;;5006382;28;20451;-85
2022/09/24 09:57:05;;;;;;;7.63;6.47;;;15.30;99.90;;;;;;5007474;28;20033;-85
2022/09/24 09:59:33;;;;;;;9.75;6.90;;;15.30;99.90;;;;;;5012679;28;20033;-84
2022/09/24 10:01:59;;;;;;;8.05;6.68;;;15.40;99.90;;;;;;5004494;28;20485;-89
2022/09/24 10:04:34;;;;;;;8.85;7.03;;;15.40;99.90;;;;;;4983902;28;20037;-87
2022/09/24 10:07:08;;;;;;;7.47;6.22;;;15.50;99.90;;;;;;5006990;28;20605;-83
2022/09/24 10:09:35;;;;;;;8.82;7.03;;;15.50;99.90;;;;;;5006711;28;20686;-84
2022/09/24 10:12:23;;;;;;;9.90;6.82;;;15.60;99.90;;;;;;4994319;28;20030;-84
2022/09/24 10:15:03;;;;;;;7.82;6.72;;;15.60;99.90;;;;;;4995831;28;20120;-85
2022/09/24 10:17:39;;;;;;;9.27;6.97;;;15.70;99.90;;;;;;4996619;28;20495;-84
2022/09/24 10:20:31;;;;;;;8.20;7.15;;;15.80;99.90;;;;;;5017211;28;20072;-85
2022/09/24 10:23:06;;;;;;;8.60;7.25;;;15.70;99.90;;;;;;4994772;28;20036;-84
2022/09/24 10:25:36;;;;;;;10.52;7.03;;;15.80;99.90;;;;;;4988942;28;20083;-84
2022/09/24 10:31:11;;;;;;;9.20;6.85;;;15.90;99.90;;;;;;5018790;28;20699;-84
2022/09/24 10:33:39;;;;;;;11.27;7.55;;;15.90;99.90;;;;;;5001903;28;20133;-83
2022/09/24 10:36:18;;;;;;;11.40;6.72;;;16.00;99.90;;;;;;5006203;28;20025;-84
2022/09/24 10:38:44;;;;;;;10.88;6.97;;;15.90;99.90;;;;;;5024823;28;20171;-84
2022/09/24 10:41:27;;;;;;;9.05;6.55;;;15.90;99.90;;;;;;5015423;28;20525;-83
2022/09/24 10:43:55;;;;;;;15.48;6.55;;;16.00;99.90;;;;;;5014016;28;20032;-84
2022/09/24 10:46:30;;;;;;;11.95;8.43;;;16.10;99.90;;;;;;5000499;28;20026;-83
2022/09/24 10:52:11;;;;;;;9.85;7.10;;;16.10;99.90;;;;;;5022609;23;20739;-87
2022/09/24 10:54:55;;;;;;;10.55;6.93;;;16.20;99.90;;;;;;5004883;28;20030;-87
2022/09/24 10:57:42;;;;;;;12.25;7.75;;;16.20;99.90;;;;;;4999703;28;20122;-87
2022/09/24 11:00:11;;;;;;;9.88;7.78;;;16.20;99.90;;;;;;4989745;28;20109;-85
2022/09/24 11:03:15;;;;;;;9.13;6.97;;;16.30;99.90;;;;;;4987640;28;20059;-86
2022/09/24 11:05:48;;;;;;;10.45;7.00;;;16.30;99.90;;;;;;5003547;28;20034;-86
2022/09/24 11:08:55;;;;;;;9.85;7.00;;;16.30;99.90;;;;;;4992492;28;20237;-85
2022/09/24 11:11:29;;;;;;;11.55;6.88;;;16.50;99.90;;;;;;4937134;28;20043;-85
2022/09/24 11:14:00;;;;;;;9.55;7.32;;;16.60;99.90;;;;;;4972130;28;20245;-84
2022/09/24 11:16:48;;;;;;;10.73;7.25;;;16.50;99.90;;;;;;5008001;28;20030;-86
2022/09/24 11:19:39;;;;;;;9.60;7.00;;;16.40;99.90;;;;;;4992530;28;20602;-89
2022/09/24 11:22:15;;;;;;;9.45;5.78;;;16.40;99.90;;;;;;4990248;28;20033;-87
2022/09/24 11:25:00;;;;;;;10.65;6.95;;;16.40;99.90;;;;;;5007083;28;20038;-88
2022/09/24 11:27:53;;;;;;;8.93;6.50;;;16.50;99.90;;;;;;4989980;28;20026;-86
2022/09/24 11:30:46;;;;;;;11.13;5.32;;;16.70;99.90;;;;;;5001279;28;20093;-86
2022/09/24 11:33:25;;;;;;;8.43;6.82;;;16.70;99.90;;;;;;4985229;28;20023;-86
2022/09/24 11:36:05;;;;;;;8.75;6.15;;;16.80;99.90;;;;;;4988545;28;20609;-89
2022/09/24 11:38:53;;;;;;;7.10;6.40;;;17.00;99.90;;;;;;4988724;28;20037;-89
2022/09/24 11:41:35;;;;;;;6.50;5.47;;;17.10;99.90;;;;;;5003646;28;20113;-89
2022/09/24 11:44:20;;;;;;;5.25;4.70;;;17.10;99.90;;;;;;4994283;28;20019;-89
2022/09/24 11:47:09;;;;;;;4.60;3.97;;;17.10;99.90;;;;;;5000702;28;20037;-87
2022/09/24 11:49:53;;;;;;;4.85;3.67;;;17.30;99.90;;;;;;4983956;28;20046;-87
2022/09/24 11:52:31;;;;;;;4.57;3.47;;;17.30;99.90;;;;;;5004692;28;20037;-88
2022/09/24 11:55:21;;;;;;;6.47;5.70;;;17.20;99.90;;;;;;5018902;28;20117;-86
2022/09/24 11:58:08;;;;;;;7.65;5.50;;;17.10;99.90;;;;;;4971857;28;20037;-87
2022/09/24 12:00:39;;;;;;;8.60;5.63;;;17.00;99.90;;;;;;4983627;28;20105;-88
2022/09/24 12:03:14;;;;;;;7.75;5.60;;;16.90;99.90;;;;;;4999812;28;20470;-84
2022/09/24 12:05:51;;;;;;;7.80;5.53;;;17.00;99.90;;;;;;5006931;28;20048;-88
2022/09/24 12:08:19;;;;;;;5.22;4.70;;;17.10;99.90;;;;;;4971930;28;20038;-87
2022/09/24 12:10:56;;;;;;;6.25;3.63;;;17.20;99.90;;;;;;5009358;28;20063;-84
2022/09/24 12:13:37;;;;;;;6.85;4.05;;;17.20;99.90;;;;;;4996520;28;20033;-88
2022/09/24 12:16:20;;;;;;;5.50;4.78;;;17.30;99.90;;;;;;4998978;28;20117;-85
2022/09/24 12:18:53;;;;;;;7.93;6.65;;;17.30;99.90;;;;;;5003973;28;20113;-85
2022/09/24 12:21:42;;;;;;;6.68;5.60;;;17.10;99.90;;;;;;5010495;28;20109;-86
2022/09/24 12:24:35;;;;;;;6.18;5.05;;;17.00;99.90;;;;;;4997181;28;20018;-86
2022/09/24 12:27:09;;;;;;;5.15;4.22;;;17.00;99.90;;;;;;4990718;28;20057;-89
2022/09/24 12:33:02;;;;;;;2.97;2.72;;;17.10;99.90;;;;;;5007466;28;20034;-88
2022/09/24 12:35:50;;;;;;;3.20;2.92;;;17.00;99.90;;;;;;4996250;28;20102;-88
2022/09/24 12:38:24;;;;;;;4.25;3.53;;;17.10;99.90;;;;;;5020171;28;20487;-87
2022/09/24 12:41:12;;;;;;;5.13;4.00;;;17.20;99.90;;;;;;4991810;28;20037;-85
2022/09/24 12:43:56;;;;;;;7.28;4.18;;;17.30;99.90;;;;;;5009983;28;20037;-87
2022/09/24 12:46:45;;;;;;;7.78;4.95;;;17.30;99.90;;;;;;5009658;28;20089;-89
2022/09/24 12:49:17;;;;;;;4.72;4.10;;;17.30;99.90;;;;;;5006944;28;20053;-88
2022/09/24 12:51:43;;;;;;;5.35;4.80;;;17.20;99.90;;;;;;4981672;28;20030;-89
2022/09/24 12:54:28;;;;;;;5.75;4.68;;;17.30;99.90;;;;;;4990932;28;20042;-87
2022/09/24 12:57:18;;;;;;;4.65;3.70;;;17.30;99.90;;;;;;5005245;28;20060;-89
2022/09/24 12:59:57;;;;;;;6.80;4.10;;;17.30;99.90;;;;;;4989833;28;20030;-88
2022/09/24 13:02:46;;;;;;;3.63;3.25;;;17.30;99.90;;;;;;5010043;28;20117;-85
2022/09/24 13:05:27;;;;;;;5.28;2.90;;;17.30;99.90;;;;;;4989388;28;20034;-89
2022/09/24 13:08:06;;;;;;;5.03;3.00;;;17.40;99.90;;;;;;5010275;28;20044;-89
2022/09/24 13:10:35;;;;;;;4.07;2.75;;;17.40;99.90;;;;;;5009055;28;20441;-89
2022/09/24 13:13:03;;;;;;;3.08;2.80;;;17.30;99.90;;;;;;5006830;28;20062;-87
2022/09/24 13:15:37;;;;;;;4.80;3.30;;;17.30;99.90;;;;;;5009016;28;20041;-91
2022/09/24 13:18:09;;;;;;;3.30;3.00;;;17.30;99.90;;;;;;5009089;28;20022;-87
2022/09/24 13:20:41;;;;;;;3.30;3.00;;;17.30;99.90;;;;;;5008671;28;20064;-84
2022/09/24 13:23:19;;;;;;;4.50;3.35;;;17.30;99.90;;;;;;5008295;28;20064;-88
2022/09/24 13:25:55;;;;;;;3.65;3.20;;;17.30;99.90;;;;;;5010110;28;20030;-86
2022/09/24 13:28:27;;;;;;;94.15;63.58;;;17.30;99.90;;;;;;5009306;28;20029;-89
2022/09/24 13:31:28;;;;;;;13.02;9.68;;;17.30;99.90;;;;;;4994264;28;20033;-87
2022/09/24 13:34:08;;;;;;;4.47;4.07;;;17.30;99.90;;;;;;5011478;28;20312;-87